createdAt,value
2022-08-24T00:04:09.087Z,42.04
2022-08-24T00:09:16.259Z,41.94
2022-08-24T00:14:23.496Z,42.08
2022-08-24T00:19:30.675Z,42.10
2022-08-24T00:24:37.926Z,42.15
2022-08-24T00:29:45.252Z,42.18
2022-08-24T00:34:58.558Z,42.80
2022-08-24T00:39:59.722Z,43.27
2022-08-24T00:45:06.878Z,42.54
2022-08-24T00:50:14.051Z,42.68
2022-08-24T00:55:21.232Z,43.41
2022-08-24T01:00:28.469Z,43.07
2022-08-24T01:05:35.629Z,43.07
2022-08-24T01:10:42.864Z,42.80
2022-08-24T01:15:50.124Z,42.34
2022-08-24T01:20:57.273Z,42.16
2022-08-24T01:26:04.422Z,42.09
2022-08-24T01:31:11.637Z,41.96
2022-08-24T01:36:18.825Z,41.81
2022-08-24T01:41:29.099Z,42.04
2022-08-24T01:46:33.257Z,41.91
2022-08-24T01:51:41.651Z,41.70
2022-08-24T01:56:48.868Z,42.07
2022-08-24T02:01:56.135Z,41.93
2022-08-24T02:07:03.227Z,41.80
2022-08-24T02:12:10.418Z,42.13
2022-08-24T02:17:17.592Z,42.05
2022-08-24T02:22:24.755Z,42.04
2022-08-24T02:27:32.027Z,42.17
2022-08-24T02:32:39.281Z,42.30
2022-08-24T02:37:46.506Z,42.27
2022-08-24T02:42:55.675Z,42.32
2022-08-24T02:48:02.930Z,42.42
2022-08-24T02:53:10.114Z,42.48
2022-08-24T02:58:17.379Z,42.51
2022-08-24T03:03:24.545Z,42.60
2022-08-24T03:08:31.748Z,42.44
2022-08-24T03:13:38.951Z,42.66
2022-08-24T03:18:46.130Z,42.72
2022-08-24T03:23:53.307Z,42.81
2022-08-24T03:29:00.486Z,42.86
2022-08-24T03:34:07.691Z,42.90
2022-08-24T03:39:14.881Z,42.92
2022-08-24T03:44:23.337Z,42.96
2022-08-24T03:49:29.268Z,42.93
2022-08-24T03:54:36.513Z,43.06
2022-08-24T03:59:46.823Z,43.12
2022-08-24T04:04:51.198Z,43.25
2022-08-24T04:09:58.375Z,43.22
2022-08-24T04:15:05.607Z,43.33
2022-08-24T04:20:12.844Z,43.40
2022-08-24T04:25:24.684Z,43.30
2022-08-24T04:30:27.203Z,43.46
2022-08-24T04:35:34.417Z,43.25
2022-08-24T04:40:41.665Z,43.45
2022-08-24T04:45:48.922Z,43.53
2022-08-24T04:50:56.169Z,43.78
2022-08-24T04:56:03.364Z,43.88
2022-08-24T05:01:10.683Z,44.41
2022-08-24T05:06:17.818Z,44.64
2022-08-24T05:11:25.529Z,44.65
2022-08-24T05:16:33.054Z,44.68
2022-08-24T05:21:40.215Z,44.94
2022-08-24T05:26:47.434Z,45.11
2022-08-24T05:31:54.642Z,45.65
2022-08-24T05:37:04.601Z,45.95
2022-08-24T05:42:11.828Z,46.09
2022-08-24T05:47:19.012Z,46.54
2022-08-24T05:52:26.190Z,46.86
2022-08-24T05:57:33.487Z,46.56
2022-08-24T06:02:43.376Z,47.14
2022-08-24T06:07:50.510Z,47.67
2022-08-24T06:12:57.848Z,47.86
2022-08-24T06:18:05.068Z,47.63
2022-08-24T06:23:12.202Z,48.28
2022-08-24T06:28:19.384Z,48.05
2022-08-24T06:33:26.613Z,47.97
2022-08-24T06:38:33.772Z,47.55
2022-08-24T06:43:40.972Z,48.58
2022-08-24T06:48:48.219Z,48.95
2022-08-24T06:53:55.426Z,48.83
2022-08-24T06:59:02.621Z,48.56
2022-08-24T07:04:09.813Z,48.38
2022-08-24T07:09:17.047Z,48.15
2022-08-24T07:14:24.225Z,48.23
2022-08-24T07:19:32.280Z,47.87
2022-08-24T07:24:39.463Z,47.84
2022-08-24T07:29:56.272Z,47.80
2022-08-24T07:34:54.162Z,47.91
2022-08-24T07:40:01.436Z,47.76
2022-08-24T07:45:08.675Z,47.34
2022-08-24T07:50:15.922Z,47.28
2022-08-24T07:55:23.137Z,47.50
2022-08-24T08:00:30.378Z,47.45
2022-08-24T08:05:37.626Z,46.96
2022-08-24T08:10:44.863Z,47.09
2022-08-24T08:15:53.206Z,46.87
2022-08-24T08:20:59.349Z,46.49
2022-08-24T08:26:06.583Z,46.27
2022-08-24T08:31:13.885Z,46.19
2022-08-24T08:36:21.023Z,46.58
2022-08-24T08:41:28.264Z,46.69
2022-08-24T08:46:40.119Z,46.21
2022-08-24T08:51:42.760Z,46.17
2022-08-24T08:56:49.963Z,46.48
2022-08-24T09:01:57.209Z,46.55
2022-08-24T09:07:04.373Z,46.10
2022-08-24T09:12:11.557Z,46.27
2022-08-24T09:17:18.852Z,46.21
2022-08-24T09:22:26.205Z,46.10
2022-08-24T09:27:33.495Z,45.80
2022-08-24T09:32:41.168Z,45.65
2022-08-24T09:37:47.930Z,45.49
2022-08-24T09:42:55.133Z,44.61
2022-08-24T09:48:02.370Z,44.46
2022-08-24T09:53:09.610Z,45.08
2022-08-24T09:58:16.820Z,44.56
2022-08-24T10:03:27.333Z,44.75
2022-08-24T10:08:31.261Z,45.24
2022-08-24T10:13:40.547Z,45.80
2022-08-24T10:18:47.782Z,46.05
2022-08-24T10:23:54.962Z,45.49
2022-08-24T10:29:02.111Z,45.78
2022-08-24T10:34:09.359Z,47.09
2022-08-24T10:39:16.574Z,46.38
2022-08-24T10:44:23.777Z,46.36
2022-08-24T10:49:30.971Z,46.46
2022-08-24T10:54:38.159Z,45.20
2022-08-24T10:59:45.374Z,44.72
2022-08-24T11:04:53.202Z,44.93
2022-08-24T11:10:00.432Z,44.71
2022-08-24T11:15:07.684Z,44.90
2022-08-24T11:20:14.929Z,44.54
2022-08-24T11:25:22.083Z,44.51
2022-08-24T11:30:29.274Z,44.42
2022-08-24T11:35:36.534Z,44.48
2022-08-24T11:40:43.720Z,44.54
2022-08-24T11:45:50.929Z,45.27
2022-08-24T11:50:58.208Z,44.83
2022-08-24T11:56:05.619Z,44.00
2022-08-24T12:01:12.912Z,44.04
2022-08-24T12:06:20.322Z,43.56
2022-08-24T12:11:27.565Z,43.53
2022-08-24T12:16:34.839Z,42.86
2022-08-24T12:21:42.012Z,42.92
2022-08-24T12:26:49.460Z,42.28
2022-08-24T12:31:56.742Z,42.43
2022-08-24T12:37:04.811Z,42.31
2022-08-24T12:42:15.743Z,40.75
2022-08-24T12:47:18.616Z,39.75
2022-08-24T12:52:25.838Z,39.79
2022-08-24T12:57:33.092Z,39.68
2022-08-24T13:02:44.362Z,38.66
2022-08-24T13:07:47.557Z,38.23
2022-08-24T13:12:54.833Z,38.54
2022-08-24T13:18:03.511Z,38.59
2022-08-24T13:23:09.277Z,38.37
2022-08-24T13:28:16.500Z,38.70
2022-08-24T13:33:23.656Z,39.18
2022-08-24T13:38:30.888Z,39.02
2022-08-24T13:43:38.740Z,39.07
2022-08-24T13:48:45.866Z,38.66
2022-08-24T13:53:53.141Z,38.44
2022-08-24T13:59:00.315Z,38.81
2022-08-24T14:04:07.563Z,38.75
2022-08-24T14:09:14.767Z,37.80
2022-08-24T14:14:21.959Z,38.62
2022-08-24T14:19:29.160Z,38.56
2022-08-24T14:24:36.377Z,37.78
2022-08-24T14:29:43.628Z,38.31
2022-08-24T14:34:50.806Z,37.83
2022-08-24T14:39:58.245Z,38.40
2022-08-24T14:45:05.438Z,38.57
2022-08-24T14:50:15.969Z,39.01
2022-08-24T14:55:23.214Z,38.41
2022-08-24T15:00:30.486Z,37.98
2022-08-24T15:05:37.821Z,38.04
2022-08-24T15:10:44.926Z,38.15
2022-08-24T15:15:53.833Z,38.63
2022-08-24T15:21:00.989Z,38.42
2022-08-24T15:26:08.270Z,38.00
2022-08-24T15:31:15.571Z,37.88
2022-08-24T15:36:22.700Z,38.06
2022-08-24T15:41:29.955Z,38.18
2022-08-24T15:46:37.241Z,38.14
2022-08-24T15:51:44.374Z,38.47
2022-08-24T15:56:51.588Z,38.61
2022-08-24T16:01:58.829Z,38.53
2022-08-24T16:07:06.112Z,38.74
2022-08-24T16:12:14.040Z,39.13
2022-08-24T16:17:20.750Z,39.25
2022-08-24T16:22:27.934Z,39.38
2022-08-24T16:27:35.122Z,39.12
2022-08-24T16:32:51.662Z,39.53
2022-08-24T16:37:49.667Z,39.47
2022-08-24T16:42:56.867Z,39.58
2022-08-24T16:48:04.323Z,39.83
2022-08-24T16:53:11.211Z,39.95
2022-08-24T16:58:18.449Z,40.17
2022-08-24T17:03:25.701Z,40.47
2022-08-24T17:08:32.912Z,40.81
2022-08-24T17:13:49.824Z,40.94
2022-08-24T17:18:47.343Z,41.24
2022-08-24T17:23:54.544Z,41.41
2022-08-24T17:29:01.809Z,41.62
2022-08-24T17:34:09.006Z,41.70
2022-08-24T17:39:16.196Z,41.90
2022-08-24T17:44:23.395Z,41.93
2022-08-24T17:49:30.559Z,42.07
2022-08-24T17:54:37.780Z,42.11
2022-08-24T17:59:44.980Z,42.32
2022-08-24T18:04:52.195Z,42.48
2022-08-24T18:09:59.379Z,42.28
2022-08-24T18:15:06.541Z,42.20
2022-08-24T18:20:13.730Z,43.31
2022-08-24T18:25:20.892Z,43.41
2022-08-24T18:30:30.491Z,44.29
2022-08-24T18:35:35.316Z,44.55
2022-08-24T18:40:52.376Z,45.02
2022-08-24T18:45:49.816Z,45.21
2022-08-24T18:50:59.587Z,44.96
2022-08-24T18:56:11.777Z,46.35
2022-08-24T19:01:14.189Z,45.03
2022-08-24T19:06:21.435Z,45.94
2022-08-24T19:11:28.710Z,47.15
2022-08-24T19:16:36.241Z,47.65
2022-08-24T19:21:43.537Z,48.06
2022-08-24T19:26:51.008Z,48.33
2022-08-24T19:31:58.775Z,48.28
2022-08-24T19:37:06.208Z,48.51
2022-08-24T19:42:13.632Z,48.47
2022-08-24T19:47:21.265Z,48.62
2022-08-24T19:52:28.710Z,48.85
2022-08-24T19:57:35.913Z,48.82
2022-08-24T20:02:43.218Z,48.92
2022-08-24T20:07:50.457Z,49.25
2022-08-24T20:12:57.687Z,49.28
2022-08-24T20:18:04.942Z,49.35
2022-08-24T20:23:12.133Z,49.94
2022-08-24T20:28:29.313Z,49.75
2022-08-24T20:33:26.513Z,50.02
2022-08-24T20:38:33.786Z,50.26
2022-08-24T20:43:41.040Z,50.18
2022-08-24T20:48:55.326Z,49.71
2022-08-24T20:53:55.454Z,49.39
2022-08-24T20:59:02.636Z,49.36
2022-08-24T21:04:09.965Z,49.74
2022-08-24T21:09:17.075Z,50.12
2022-08-24T21:14:24.286Z,50.07
2022-08-24T21:19:32.281Z,50.65
2022-08-24T21:24:39.454Z,50.10
2022-08-24T21:29:46.655Z,50.25
2022-08-24T21:34:53.845Z,50.26
2022-08-24T21:40:01.157Z,50.61
2022-08-24T21:45:08.196Z,50.15
2022-08-24T21:50:15.407Z,49.78
2022-08-24T21:55:22.559Z,49.91
2022-08-24T22:00:29.763Z,50.17
2022-08-24T22:05:36.937Z,50.05
2022-08-24T22:10:44.201Z,49.45
2022-08-24T22:15:51.501Z,49.84
2022-08-24T22:20:58.604Z,49.76
2022-08-24T22:26:05.749Z,49.61
2022-08-24T22:31:13.032Z,49.70
2022-08-24T22:36:20.147Z,49.39
2022-08-24T22:41:27.341Z,49.25
2022-08-24T22:46:34.592Z,49.20
2022-08-24T22:51:41.701Z,48.92
2022-08-24T22:56:48.909Z,48.65
2022-08-24T23:01:56.263Z,48.49
2022-08-24T23:07:03.356Z,48.29
2022-08-24T23:12:10.544Z,48.30
2022-08-24T23:17:17.705Z,48.13
2022-08-24T23:22:25.689Z,48.05
2022-08-24T23:27:33.049Z,47.99
2022-08-24T23:32:39.384Z,47.86
2022-08-24T23:37:46.602Z,48.27
2022-08-24T23:42:53.812Z,48.42
2022-08-24T23:48:01.052Z,48.06
2022-08-24T23:53:08.336Z,47.53
2022-08-24T23:58:15.552Z,47.51
